sensor_id;sensor_type;location;lat;lon;timestamp;temperature;humidity
22006;DHT22;11167;46.988;15.470;2024-03-29T00:00:58;12.20;67.40
22006;DHT22;11167;46.988;15.470;2024-03-29T00:03:01;12.20;66.70
22006;DHT22;11167;46.988;15.470;2024-03-29T00:05:03;12.20;66.60
22006;DHT22;11167;46.988;15.470;2024-03-29T00:07:05;12.20;66.60
22006;DHT22;11167;46.988;15.470;2024-03-29T00:09:06;12.20;66.60
22006;DHT22;11167;46.988;15.470;2024-03-29T00:11:07;12.20;66.60
22006;DHT22;11167;46.988;15.470;2024-03-29T00:13:08;12.10;66.70
22006;DHT22;11167;46.988;15.470;2024-03-29T00:15:09;12.10;66.80
22006;DHT22;11167;46.988;15.470;2024-03-29T00:17:11;12.10;66.80
22006;DHT22;11167;46.988;15.470;2024-03-29T00:19:12;12.10;66.80
22006;DHT22;11167;46.988;15.470;2024-03-29T00:21:14;12.10;66.90
22006;DHT22;11167;46.988;15.470;2024-03-29T00:23:15;12.10;66.90
22006;DHT22;11167;46.988;15.470;2024-03-29T00:25:17;12.10;66.90
22006;DHT22;11167;46.988;15.470;2024-03-29T00:27:18;12.00;66.90
22006;DHT22;11167;46.988;15.470;2024-03-29T00:29:19;12.00;66.80
22006;DHT22;11167;46.988;15.470;2024-03-29T00:31:20;12.00;66.80
22006;DHT22;11167;46.988;15.470;2024-03-29T00:33:21;12.00;66.90
22006;DHT22;11167;46.988;15.470;2024-03-29T00:35:23;12.00;66.90
22006;DHT22;11167;46.988;15.470;2024-03-29T00:37:24;12.00;66.90
22006;DHT22;11167;46.988;15.470;2024-03-29T00:39:25;11.90;66.90
22006;DHT22;11167;46.988;15.470;2024-03-29T00:41:26;11.90;66.90
22006;DHT22;11167;46.988;15.470;2024-03-29T00:43:28;11.90;66.90
22006;DHT22;11167;46.988;15.470;2024-03-29T00:45:29;11.90;67.00
22006;DHT22;11167;46.988;15.470;2024-03-29T00:47:30;11.90;67.00
22006;DHT22;11167;46.988;15.470;2024-03-29T00:49:33;11.90;67.00
22006;DHT22;11167;46.988;15.470;2024-03-29T00:51:34;11.80;66.90
22006;DHT22;11167;46.988;15.470;2024-03-29T00:53:35;11.80;66.90
22006;DHT22;11167;46.988;15.470;2024-03-29T00:55:38;11.80;67.10
22006;DHT22;11167;46.988;15.470;2024-03-29T00:57:39;11.80;67.00
22006;DHT22;11167;46.988;15.470;2024-03-29T00:59:41;11.80;67.10
22006;DHT22;11167;46.988;15.470;2024-03-29T01:01:44;11.80;67.00
22006;DHT22;11167;46.988;15.470;2024-03-29T01:03:45;11.80;67.10
22006;DHT22;11167;46.988;15.470;2024-03-29T01:05:47;11.80;67.00
22006;DHT22;11167;46.988;15.470;2024-03-29T01:07:48;11.80;67.10
22006;DHT22;11167;46.988;15.470;2024-03-29T01:09:49;11.70;67.00
22006;DHT22;11167;46.988;15.470;2024-03-29T01:11:51;11.70;67.10
22006;DHT22;11167;46.988;15.470;2024-03-29T01:13:53;11.70;67.10
22006;DHT22;11167;46.988;15.470;2024-03-29T01:15:54;11.70;67.10
22006;DHT22;11167;46.988;15.470;2024-03-29T01:17:55;11.70;67.10
22006;DHT22;11167;46.988;15.470;2024-03-29T01:19:56;11.70;67.20
22006;DHT22;11167;46.988;15.470;2024-03-29T01:21:58;11.70;67.20
22006;DHT22;11167;46.988;15.470;2024-03-29T01:23:59;11.60;67.20
22006;DHT22;11167;46.988;15.470;2024-03-29T01:26:01;11.60;67.20
22006;DHT22;11167;46.988;15.470;2024-03-29T01:28:03;11.60;67.30
22006;DHT22;11167;46.988;15.470;2024-03-29T01:30:06;11.60;67.30
22006;DHT22;11167;46.988;15.470;2024-03-29T01:32:08;11.60;67.20
22006;DHT22;11167;46.988;15.470;2024-03-29T01:34:09;11.60;67.30
22006;DHT22;11167;46.988;15.470;2024-03-29T01:36:11;11.50;67.30
22006;DHT22;11167;46.988;15.470;2024-03-29T01:38:14;11.50;67.30
22006;DHT22;11167;46.988;15.470;2024-03-29T01:40:15;11.50;67.30
22006;DHT22;11167;46.988;15.470;2024-03-29T01:42:16;11.50;67.30
22006;DHT22;11167;46.988;15.470;2024-03-29T01:44:17;11.50;67.30
22006;DHT22;11167;46.988;15.470;2024-03-29T01:46:23;11.50;67.50
22006;DHT22;11167;46.988;15.470;2024-03-29T01:48:26;11.40;67.50
22006;DHT22;11167;46.988;15.470;2024-03-29T01:50:28;11.40;67.30
22006;DHT22;11167;46.988;15.470;2024-03-29T01:52:29;11.40;67.40
22006;DHT22;11167;46.988;15.470;2024-03-29T01:54:30;11.40;67.40
22006;DHT22;11167;46.988;15.470;2024-03-29T01:56:32;11.40;67.50
22006;DHT22;11167;46.988;15.470;2024-03-29T01:58:33;11.40;67.50
22006;DHT22;11167;46.988;15.470;2024-03-29T02:00:41;11.40;67.10
22006;DHT22;11167;46.988;15.470;2024-03-29T02:02:42;11.30;67.60
22006;DHT22;11167;46.988;15.470;2024-03-29T02:04:43;11.30;67.50
22006;DHT22;11167;46.988;15.470;2024-03-29T02:06:45;11.30;67.50
22006;DHT22;11167;46.988;15.470;2024-03-29T02:08:54;11.30;67.60
22006;DHT22;11167;46.988;15.470;2024-03-29T02:10:55;11.30;67.60
22006;DHT22;11167;46.988;15.470;2024-03-29T02:12:58;11.30;67.50
22006;DHT22;11167;46.988;15.470;2024-03-29T02:14:59;11.20;67.60
22006;DHT22;11167;46.988;15.470;2024-03-29T02:17:03;11.20;67.70
22006;DHT22;11167;46.988;15.470;2024-03-29T02:19:05;11.20;67.80
22006;DHT22;11167;46.988;15.470;2024-03-29T02:21:07;11.20;68.30
22006;DHT22;11167;46.988;15.470;2024-03-29T02:23:19;11.20;67.60
22006;DHT22;11167;46.988;15.470;2024-03-29T02:25:21;11.20;67.60
22006;DHT22;11167;46.988;15.470;2024-03-29T02:27:22;11.20;67.80
22006;DHT22;11167;46.988;15.470;2024-03-29T02:29:24;11.10;68.60
22006;DHT22;11167;46.988;15.470;2024-03-29T02:31:25;11.10;67.80
22006;DHT22;11167;46.988;15.470;2024-03-29T02:33:26;11.10;67.80
22006;DHT22;11167;46.988;15.470;2024-03-29T02:35:28;11.10;67.90
22006;DHT22;11167;46.988;15.470;2024-03-29T02:37:30;11.10;67.90
22006;DHT22;11167;46.988;15.470;2024-03-29T02:39:31;11.10;67.80
22006;DHT22;11167;46.988;15.470;2024-03-29T02:41:33;11.00;67.80
22006;DHT22;11167;46.988;15.470;2024-03-29T02:43:34;11.00;67.80
22006;DHT22;11167;46.988;15.470;2024-03-29T02:45:35;11.00;67.80
22006;DHT22;11167;46.988;15.470;2024-03-29T02:47:36;11.00;68.00
22006;DHT22;11167;46.988;15.470;2024-03-29T02:49:38;11.00;68.00
22006;DHT22;11167;46.988;15.470;2024-03-29T02:51:39;11.00;68.00
22006;DHT22;11167;46.988;15.470;2024-03-29T02:53:40;11.00;68.00
22006;DHT22;11167;46.988;15.470;2024-03-29T02:55:41;10.90;68.00
22006;DHT22;11167;46.988;15.470;2024-03-29T02:57:42;10.90;68.00
22006;DHT22;11167;46.988;15.470;2024-03-29T02:59:44;10.90;68.30
22006;DHT22;11167;46.988;15.470;2024-03-29T03:01:45;10.90;68.00
22006;DHT22;11167;46.988;15.470;2024-03-29T03:03:47;10.90;68.00
22006;DHT22;11167;46.988;15.470;2024-03-29T03:05:48;10.90;68.00
22006;DHT22;11167;46.988;15.470;2024-03-29T03:07:50;10.80;68.00
22006;DHT22;11167;46.988;15.470;2024-03-29T03:10:09;10.80;68.00
22006;DHT22;11167;46.988;15.470;2024-03-29T03:14:52;10.80;68.00
22006;DHT22;11167;46.988;15.470;2024-03-29T03:16:53;10.80;68.10
22006;DHT22;11167;46.988;15.470;2024-03-29T03:18:54;10.70;68.00
22006;DHT22;11167;46.988;15.470;2024-03-29T03:20:56;10.70;68.20
22006;DHT22;11167;46.988;15.470;2024-03-29T03:23:00;10.70;68.20
22006;DHT22;11167;46.988;15.470;2024-03-29T03:25:02;10.70;68.20
22006;DHT22;11167;46.988;15.470;2024-03-29T03:27:03;10.70;68.20
22006;DHT22;11167;46.988;15.470;2024-03-29T03:29:05;10.70;68.10
22006;DHT22;11167;46.988;15.470;2024-03-29T03:31:08;10.70;68.20
22006;DHT22;11167;46.988;15.470;2024-03-29T03:33:09;10.60;68.20
22006;DHT22;11167;46.988;15.470;2024-03-29T03:35:11;10.60;68.10
22006;DHT22;11167;46.988;15.470;2024-03-29T03:37:12;10.60;68.90
22006;DHT22;11167;46.988;15.470;2024-03-29T03:39:13;10.60;68.20
22006;DHT22;11167;46.988;15.470;2024-03-29T03:41:14;10.60;68.30
22006;DHT22;11167;46.988;15.470;2024-03-29T03:43:15;10.60;68.30
22006;DHT22;11167;46.988;15.470;2024-03-29T03:45:16;10.50;68.20
22006;DHT22;11167;46.988;15.470;2024-03-29T03:47:18;10.50;68.30
22006;DHT22;11167;46.988;15.470;2024-03-29T03:49:19;10.50;68.30
22006;DHT22;11167;46.988;15.470;2024-03-29T03:51:20;10.50;68.50
22006;DHT22;11167;46.988;15.470;2024-03-29T03:53:22;10.50;68.40
22006;DHT22;11167;46.988;15.470;2024-03-29T03:55:24;10.50;68.30
22006;DHT22;11167;46.988;15.470;2024-03-29T03:57:25;10.50;68.40
22006;DHT22;11167;46.988;15.470;2024-03-29T03:59:26;10.40;68.40
22006;DHT22;11167;46.988;15.470;2024-03-29T04:01:27;10.40;68.50
22006;DHT22;11167;46.988;15.470;2024-03-29T04:03:29;10.40;68.40
22006;DHT22;11167;46.988;15.470;2024-03-29T04:05:30;10.40;68.40
22006;DHT22;11167;46.988;15.470;2024-03-29T04:07:32;10.40;68.50
22006;DHT22;11167;46.988;15.470;2024-03-29T04:09:34;10.40;68.40
22006;DHT22;11167;46.988;15.470;2024-03-29T04:11:35;10.30;68.40
22006;DHT22;11167;46.988;15.470;2024-03-29T04:13:36;10.30;68.40
22006;DHT22;11167;46.988;15.470;2024-03-29T04:15:39;10.30;68.50
22006;DHT22;11167;46.988;15.470;2024-03-29T04:17:41;10.30;68.40
22006;DHT22;11167;46.988;15.470;2024-03-29T04:19:42;10.30;68.40
22006;DHT22;11167;46.988;15.470;2024-03-29T04:21:43;10.30;68.60
22006;DHT22;11167;46.988;15.470;2024-03-29T04:23:45;10.30;68.60
22006;DHT22;11167;46.988;15.470;2024-03-29T04:25:58;10.20;68.50
22006;DHT22;11167;46.988;15.470;2024-03-29T04:27:59;10.20;68.50
22006;DHT22;11167;46.988;15.470;2024-03-29T04:30:00;10.20;68.40
22006;DHT22;11167;46.988;15.470;2024-03-29T04:32:01;10.20;68.60
22006;DHT22;11167;46.988;15.470;2024-03-29T04:34:03;10.20;68.60
22006;DHT22;11167;46.988;15.470;2024-03-29T04:36:05;10.10;68.50
22006;DHT22;11167;46.988;15.470;2024-03-29T04:38:06;10.10;68.60
22006;DHT22;11167;46.988;15.470;2024-03-29T04:40:09;10.10;68.50
22006;DHT22;11167;46.988;15.470;2024-03-29T04:42:11;10.10;68.50
22006;DHT22;11167;46.988;15.470;2024-03-29T04:44:22;10.10;68.60
22006;DHT22;11167;46.988;15.470;2024-03-29T04:46:16;10.10;68.50
22006;DHT22;11167;46.988;15.470;2024-03-29T04:48:18;10.10;68.70
22006;DHT22;11167;46.988;15.470;2024-03-29T04:50:19;10.00;68.60
22006;DHT22;11167;46.988;15.470;2024-03-29T04:52:20;10.00;68.60
22006;DHT22;11167;46.988;15.470;2024-03-29T04:54:23;10.00;68.60
22006;DHT22;11167;46.988;15.470;2024-03-29T04:56:24;10.00;68.60
22006;DHT22;11167;46.988;15.470;2024-03-29T04:58:28;10.00;68.70
22006;DHT22;11167;46.988;15.470;2024-03-29T05:00:29;10.00;68.60
22006;DHT22;11167;46.988;15.470;2024-03-29T05:02:30;9.90;68.60
22006;DHT22;11167;46.988;15.470;2024-03-29T05:04:31;9.90;68.60
22006;DHT22;11167;46.988;15.470;2024-03-29T05:06:32;9.90;68.60
22006;DHT22;11167;46.988;15.470;2024-03-29T05:08:34;9.90;68.60
22006;DHT22;11167;46.988;15.470;2024-03-29T05:10:36;9.90;68.70
22006;DHT22;11167;46.988;15.470;2024-03-29T05:12:37;9.90;68.60
22006;DHT22;11167;46.988;15.470;2024-03-29T05:14:39;9.90;68.70
22006;DHT22;11167;46.988;15.470;2024-03-29T05:16:41;9.80;68.60
22006;DHT22;11167;46.988;15.470;2024-03-29T05:18:42;9.80;68.60
22006;DHT22;11167;46.988;15.470;2024-03-29T05:20:43;9.80;68.60
22006;DHT22;11167;46.988;15.470;2024-03-29T05:22:46;9.80;68.80
22006;DHT22;11167;46.988;15.470;2024-03-29T05:24:47;9.80;68.70
22006;DHT22;11167;46.988;15.470;2024-03-29T05:26:48;9.80;68.80
22006;DHT22;11167;46.988;15.470;2024-03-29T05:28:50;9.70;68.80
22006;DHT22;11167;46.988;15.470;2024-03-29T05:30:51;9.70;68.60
22006;DHT22;11167;46.988;15.470;2024-03-29T05:32:55;9.70;68.60
22006;DHT22;11167;46.988;15.470;2024-03-29T05:34:56;9.70;68.70
22006;DHT22;11167;46.988;15.470;2024-03-29T05:36:58;9.70;68.80
22006;DHT22;11167;46.988;15.470;2024-03-29T05:38:59;9.70;68.70
22006;DHT22;11167;46.988;15.470;2024-03-29T05:41:00;9.70;68.80
22006;DHT22;11167;46.988;15.470;2024-03-29T05:43:14;9.60;68.80
22006;DHT22;11167;46.988;15.470;2024-03-29T05:45:27;9.60;68.80
22006;DHT22;11167;46.988;15.470;2024-03-29T05:47:29;9.60;68.80
22006;DHT22;11167;46.988;15.470;2024-03-29T05:49:31;9.60;68.80
22006;DHT22;11167;46.988;15.470;2024-03-29T05:51:34;9.60;68.90
22006;DHT22;11167;46.988;15.470;2024-03-29T05:53:35;9.60;68.80
22006;DHT22;11167;46.988;15.470;2024-03-29T05:55:36;9.60;68.90
22006;DHT22;11167;46.988;15.470;2024-03-29T05:57:38;9.60;69.00
22006;DHT22;11167;46.988;15.470;2024-03-29T05:59:41;9.50;68.90
22006;DHT22;11167;46.988;15.470;2024-03-29T06:01:42;9.50;68.80
22006;DHT22;11167;46.988;15.470;2024-03-29T06:03:43;9.50;68.90
22006;DHT22;11167;46.988;15.470;2024-03-29T06:05:46;9.50;68.80
22006;DHT22;11167;46.988;15.470;2024-03-29T06:07:48;9.50;68.90
22006;DHT22;11167;46.988;15.470;2024-03-29T06:09:50;9.50;70.00
22006;DHT22;11167;46.988;15.470;2024-03-29T06:11:54;9.50;69.00
22006;DHT22;11167;46.988;15.470;2024-03-29T06:13:55;9.40;68.90
22006;DHT22;11167;46.988;15.470;2024-03-29T06:16:00;9.40;69.00
22006;DHT22;11167;46.988;15.470;2024-03-29T06:18:20;9.40;68.90
22006;DHT22;11167;46.988;15.470;2024-03-29T06:20:21;9.40;69.00
22006;DHT22;11167;46.988;15.470;2024-03-29T06:22:23;9.40;69.00
22006;DHT22;11167;46.988;15.470;2024-03-29T06:24:27;9.40;69.10
22006;DHT22;11167;46.988;15.470;2024-03-29T06:26:29;9.40;69.10
22006;DHT22;11167;46.988;15.470;2024-03-29T06:28:30;9.40;69.10
22006;DHT22;11167;46.988;15.470;2024-03-29T06:30:31;9.40;69.20
22006;DHT22;11167;46.988;15.470;2024-03-29T06:32:32;9.40;69.10
22006;DHT22;11167;46.988;15.470;2024-03-29T06:34:33;9.30;69.20
22006;DHT22;11167;46.988;15.470;2024-03-29T06:36:35;9.40;69.30
22006;DHT22;11167;46.988;15.470;2024-03-29T06:38:38;9.40;69.30
22006;DHT22;11167;46.988;15.470;2024-03-29T06:40:39;9.40;69.20
22006;DHT22;11167;46.988;15.470;2024-03-29T06:42:47;9.30;69.30
22006;DHT22;11167;46.988;15.470;2024-03-29T06:44:48;9.30;69.20
22006;DHT22;11167;46.988;15.470;2024-03-29T06:46:50;9.30;69.30
22006;DHT22;11167;46.988;15.470;2024-03-29T06:48:53;9.30;69.30
22006;DHT22;11167;46.988;15.470;2024-03-29T06:50:55;9.30;69.30
22006;DHT22;11167;46.988;15.470;2024-03-29T06:52:56;9.30;70.40
22006;DHT22;11167;46.988;15.470;2024-03-29T06:54:57;9.30;69.50
22006;DHT22;11167;46.988;15.470;2024-03-29T06:56:59;9.30;69.50
22006;DHT22;11167;46.988;15.470;2024-03-29T06:59:00;9.30;69.50
22006;DHT22;11167;46.988;15.470;2024-03-29T07:01:01;9.30;69.50
22006;DHT22;11167;46.988;15.470;2024-03-29T07:03:02;9.30;69.50
22006;DHT22;11167;46.988;15.470;2024-03-29T07:05:04;9.30;69.40
22006;DHT22;11167;46.988;15.470;2024-03-29T07:07:07;9.30;69.50
22006;DHT22;11167;46.988;15.470;2024-03-29T07:09:08;9.30;69.50
22006;DHT22;11167;46.988;15.470;2024-03-29T07:11:10;9.30;69.50
22006;DHT22;11167;46.988;15.470;2024-03-29T07:13:11;9.30;69.40
22006;DHT22;11167;46.988;15.470;2024-03-29T07:15:14;9.40;69.50
22006;DHT22;11167;46.988;15.470;2024-03-29T07:17:15;9.30;69.40
22006;DHT22;11167;46.988;15.470;2024-03-29T07:19:17;9.30;69.40
22006;DHT22;11167;46.988;15.470;2024-03-29T07:21:20;9.30;69.50
22006;DHT22;11167;46.988;15.470;2024-03-29T07:23:21;9.30;69.40
22006;DHT22;11167;46.988;15.470;2024-03-29T07:25:23;9.30;69.40
22006;DHT22;11167;46.988;15.470;2024-03-29T07:27:25;9.30;69.50
22006;DHT22;11167;46.988;15.470;2024-03-29T07:29:28;9.30;69.50
22006;DHT22;11167;46.988;15.470;2024-03-29T07:31:29;9.30;69.40
22006;DHT22;11167;46.988;15.470;2024-03-29T07:33:31;9.30;69.50
22006;DHT22;11167;46.988;15.470;2024-03-29T07:35:32;9.30;69.40
22006;DHT22;11167;46.988;15.470;2024-03-29T07:37:34;9.30;69.50
22006;DHT22;11167;46.988;15.470;2024-03-29T07:39:35;9.30;69.50
22006;DHT22;11167;46.988;15.470;2024-03-29T07:41:36;9.30;69.50
22006;DHT22;11167;46.988;15.470;2024-03-29T07:43:50;9.30;69.60
22006;DHT22;11167;46.988;15.470;2024-03-29T07:45:44;9.30;69.50
22006;DHT22;11167;46.988;15.470;2024-03-29T07:47:45;9.30;69.50
22006;DHT22;11167;46.988;15.470;2024-03-29T07:49:48;9.30;69.50
22006;DHT22;11167;46.988;15.470;2024-03-29T07:51:49;9.30;69.70
22006;DHT22;11167;46.988;15.470;2024-03-29T07:53:51;9.30;69.70
22006;DHT22;11167;46.988;15.470;2024-03-29T07:55:52;9.30;69.70
22006;DHT22;11167;46.988;15.470;2024-03-29T07:57:53;9.30;69.70
22006;DHT22;11167;46.988;15.470;2024-03-29T07:59:54;9.30;69.70
22006;DHT22;11167;46.988;15.470;2024-03-29T08:01:55;9.30;69.70
22006;DHT22;11167;46.988;15.470;2024-03-29T08:04:04;9.30;69.70
22006;DHT22;11167;46.988;15.470;2024-03-29T08:06:18;9.30;69.60
22006;DHT22;11167;46.988;15.470;2024-03-29T08:08:27;9.30;69.50
22006;DHT22;11167;46.988;15.470;2024-03-29T08:10:36;9.30;69.60
22006;DHT22;11167;46.988;15.470;2024-03-29T08:12:40;9.20;69.50
22006;DHT22;11167;46.988;15.470;2024-03-29T08:14:41;9.30;69.70
22006;DHT22;11167;46.988;15.470;2024-03-29T08:16:45;9.40;69.80
22006;DHT22;11167;46.988;15.470;2024-03-29T08:18:52;9.40;69.70
22006;DHT22;11167;46.988;15.470;2024-03-29T08:21:01;9.40;69.70
22006;DHT22;11167;46.988;15.470;2024-03-29T08:23:09;9.40;69.70
22006;DHT22;11167;46.988;15.470;2024-03-29T08:25:17;9.40;69.70
22006;DHT22;11167;46.988;15.470;2024-03-29T08:27:25;9.40;69.70
22006;DHT22;11167;46.988;15.470;2024-03-29T08:29:34;9.40;69.70
22006;DHT22;11167;46.988;15.470;2024-03-29T08:31:41;9.40;69.70
22006;DHT22;11167;46.988;15.470;2024-03-29T08:33:48;9.40;69.90
22006;DHT22;11167;46.988;15.470;2024-03-29T08:35:56;9.40;69.90
22006;DHT22;11167;46.988;15.470;2024-03-29T08:38:01;9.40;69.90
22006;DHT22;11167;46.988;15.470;2024-03-29T08:40:03;9.40;69.90
22006;DHT22;11167;46.988;15.470;2024-03-29T08:42:04;9.50;70.00
22006;DHT22;11167;46.988;15.470;2024-03-29T08:44:07;9.50;70.00
22006;DHT22;11167;46.988;15.470;2024-03-29T08:46:08;9.50;70.00
22006;DHT22;11167;46.988;15.470;2024-03-29T08:48:10;9.50;70.10
22006;DHT22;11167;46.988;15.470;2024-03-29T08:50:11;9.50;70.00
22006;DHT22;11167;46.988;15.470;2024-03-29T08:52:12;9.50;70.00
22006;DHT22;11167;46.988;15.470;2024-03-29T08:54:15;9.50;70.20
22006;DHT22;11167;46.988;15.470;2024-03-29T08:56:16;9.50;70.00
22006;DHT22;11167;46.988;15.470;2024-03-29T08:58:18;9.50;70.20
22006;DHT22;11167;46.988;15.470;2024-03-29T09:00:20;9.50;70.30
22006;DHT22;11167;46.988;15.470;2024-03-29T09:02:22;9.60;70.30
22006;DHT22;11167;46.988;15.470;2024-03-29T09:04:23;9.60;70.50
22006;DHT22;11167;46.988;15.470;2024-03-29T09:06:26;9.60;70.50
22006;DHT22;11167;46.988;15.470;2024-03-29T09:08:27;9.60;70.70
22006;DHT22;11167;46.988;15.470;2024-03-29T09:10:28;9.60;70.50
22006;DHT22;11167;46.988;15.470;2024-03-29T09:12:29;9.60;70.60
22006;DHT22;11167;46.988;15.470;2024-03-29T09:14:31;9.60;70.70
22006;DHT22;11167;46.988;15.470;2024-03-29T09:16:32;9.70;70.90
22006;DHT22;11167;46.988;15.470;2024-03-29T09:18:33;9.70;71.00
22006;DHT22;11167;46.988;15.470;2024-03-29T09:20:36;9.70;71.10
22006;DHT22;11167;46.988;15.470;2024-03-29T09:22:37;9.80;71.40
22006;DHT22;11167;46.988;15.470;2024-03-29T09:24:38;9.80;71.50
22006;DHT22;11167;46.988;15.470;2024-03-29T09:26:40;9.80;71.50
22006;DHT22;11167;46.988;15.470;2024-03-29T09:28:42;9.80;71.60
22006;DHT22;11167;46.988;15.470;2024-03-29T09:30:47;9.90;71.80
22006;DHT22;11167;46.988;15.470;2024-03-29T09:32:48;9.90;71.80
22006;DHT22;11167;46.988;15.470;2024-03-29T09:34:51;9.90;73.50
22006;DHT22;11167;46.988;15.470;2024-03-29T09:36:52;9.90;72.20
22006;DHT22;11167;46.988;15.470;2024-03-29T09:38:53;9.90;72.10
22006;DHT22;11167;46.988;15.470;2024-03-29T09:43:06;10.00;72.40
22006;DHT22;11167;46.988;15.470;2024-03-29T09:45:10;10.00;72.50
22006;DHT22;11167;46.988;15.470;2024-03-29T09:47:14;10.10;72.80
22006;DHT22;11167;46.988;15.470;2024-03-29T09:49:16;10.10;72.80
22006;DHT22;11167;46.988;15.470;2024-03-29T09:51:19;10.20;73.20
22006;DHT22;11167;46.988;15.470;2024-03-29T09:53:23;10.20;73.30
22006;DHT22;11167;46.988;15.470;2024-03-29T09:55:24;10.20;73.30
22006;DHT22;11167;46.988;15.470;2024-03-29T09:57:29;10.30;73.50
22006;DHT22;11167;46.988;15.470;2024-03-29T09:59:31;10.30;73.80
22006;DHT22;11167;46.988;15.470;2024-03-29T10:01:32;10.40;73.80
22006;DHT22;11167;46.988;15.470;2024-03-29T10:03:42;10.40;73.90
22006;DHT22;11167;46.988;15.470;2024-03-29T10:05:43;10.40;73.90
22006;DHT22;11167;46.988;15.470;2024-03-29T10:07:45;10.50;74.20
22006;DHT22;11167;46.988;15.470;2024-03-29T10:09:47;10.50;74.20
22006;DHT22;11167;46.988;15.470;2024-03-29T10:11:48;10.60;74.20
22006;DHT22;11167;46.988;15.470;2024-03-29T10:13:50;10.60;74.30
22006;DHT22;11167;46.988;15.470;2024-03-29T10:15:53;10.70;74.40
22006;DHT22;11167;46.988;15.470;2024-03-29T10:17:58;10.70;74.40
22006;DHT22;11167;46.988;15.470;2024-03-29T10:20:03;10.80;74.50
22006;DHT22;11167;46.988;15.470;2024-03-29T10:22:07;10.80;74.60
22006;DHT22;11167;46.988;15.470;2024-03-29T10:24:16;10.80;74.50
22006;DHT22;11167;46.988;15.470;2024-03-29T10:26:18;10.90;74.60
22006;DHT22;11167;46.988;15.470;2024-03-29T10:28:19;10.90;74.70
22006;DHT22;11167;46.988;15.470;2024-03-29T10:30:21;10.90;74.80
22006;DHT22;11167;46.988;15.470;2024-03-29T10:32:22;11.00;74.80
22006;DHT22;11167;46.988;15.470;2024-03-29T10:34:26;11.00;74.60
22006;DHT22;11167;46.988;15.470;2024-03-29T10:36:30;11.10;74.70
22006;DHT22;11167;46.988;15.470;2024-03-29T10:38:33;11.10;74.80
22006;DHT22;11167;46.988;15.470;2024-03-29T10:40:41;11.10;74.90
22006;DHT22;11167;46.988;15.470;2024-03-29T10:42:41;11.20;75.00
22006;DHT22;11167;46.988;15.470;2024-03-29T10:44:43;11.20;75.00
22006;DHT22;11167;46.988;15.470;2024-03-29T10:46:45;11.30;74.20
22006;DHT22;11167;46.988;15.470;2024-03-29T10:48:49;11.30;74.90
22006;DHT22;11167;46.988;15.470;2024-03-29T10:50:52;11.40;75.00
22006;DHT22;11167;46.988;15.470;2024-03-29T10:52:54;11.40;75.10
22006;DHT22;11167;46.988;15.470;2024-03-29T10:54:57;11.50;75.20
22006;DHT22;11167;46.988;15.470;2024-03-29T10:57:02;11.50;75.00
22006;DHT22;11167;46.988;15.470;2024-03-29T11:01:15;11.60;75.10
22006;DHT22;11167;46.988;15.470;2024-03-29T11:04:06;11.60;75.00
22006;DHT22;11167;46.988;15.470;2024-03-29T11:05:22;11.70;75.20
22006;DHT22;11167;46.988;15.470;2024-03-29T11:07:24;11.70;75.20
22006;DHT22;11167;46.988;15.470;2024-03-29T11:09:28;11.80;75.20
22006;DHT22;11167;46.988;15.470;2024-03-29T11:11:31;11.80;75.40
22006;DHT22;11167;46.988;15.470;2024-03-29T11:13:49;11.90;75.60
22006;DHT22;11167;46.988;15.470;2024-03-29T11:15:53;11.90;75.40
22006;DHT22;11167;46.988;15.470;2024-03-29T11:17:56;11.90;75.40
22006;DHT22;11167;46.988;15.470;2024-03-29T11:20:02;12.00;75.40
22006;DHT22;11167;46.988;15.470;2024-03-29T11:22:05;12.00;75.60
22006;DHT22;11167;46.988;15.470;2024-03-29T11:24:07;12.10;75.60
22006;DHT22;11167;46.988;15.470;2024-03-29T11:26:09;12.10;75.60
22006;DHT22;11167;46.988;15.470;2024-03-29T11:28:34;12.20;75.60
22006;DHT22;11167;46.988;15.470;2024-03-29T11:30:46;12.20;75.70
22006;DHT22;11167;46.988;15.470;2024-03-29T11:32:47;12.30;75.80
22006;DHT22;11167;46.988;15.470;2024-03-29T11:34:50;12.30;75.70
22006;DHT22;11167;46.988;15.470;2024-03-29T11:36:52;12.40;75.90
22006;DHT22;11167;46.988;15.470;2024-03-29T11:38:58;12.40;75.80
22006;DHT22;11167;46.988;15.470;2024-03-29T11:41:06;12.40;75.80
22006;DHT22;11167;46.988;15.470;2024-03-29T11:43:07;12.50;75.80
22006;DHT22;11167;46.988;15.470;2024-03-29T11:45:08;12.50;75.70
22006;DHT22;11167;46.988;15.470;2024-03-29T11:47:13;12.60;75.90
22006;DHT22;11167;46.988;15.470;2024-03-29T11:49:16;12.60;76.00
22006;DHT22;11167;46.988;15.470;2024-03-29T11:51:19;12.60;75.80
22006;DHT22;11167;46.988;15.470;2024-03-29T11:53:23;12.70;75.80
22006;DHT22;11167;46.988;15.470;2024-03-29T11:55:25;12.70;75.80
22006;DHT22;11167;46.988;15.470;2024-03-29T11:57:29;12.80;75.90
22006;DHT22;11167;46.988;15.470;2024-03-29T11:59:31;12.80;75.90
22006;DHT22;11167;46.988;15.470;2024-03-29T12:01:33;12.80;75.90
22006;DHT22;11167;46.988;15.470;2024-03-29T12:03:38;12.90;75.90
22006;DHT22;11167;46.988;15.470;2024-03-29T12:05:39;12.90;75.90
22006;DHT22;11167;46.988;15.470;2024-03-29T12:07:41;13.00;76.00
22006;DHT22;11167;46.988;15.470;2024-03-29T12:09:42;13.00;76.00
22006;DHT22;11167;46.988;15.470;2024-03-29T12:11:43;13.00;76.00
22006;DHT22;11167;46.988;15.470;2024-03-29T12:13:46;13.10;76.10
22006;DHT22;11167;46.988;15.470;2024-03-29T12:15:47;13.10;76.00
22006;DHT22;11167;46.988;15.470;2024-03-29T12:18:00;13.10;76.10
22006;DHT22;11167;46.988;15.470;2024-03-29T12:20:03;13.20;76.20
22006;DHT22;11167;46.988;15.470;2024-03-29T12:22:09;13.20;76.20
22006;DHT22;11167;46.988;15.470;2024-03-29T12:24:10;13.30;76.20
22006;DHT22;11167;46.988;15.470;2024-03-29T12:26:12;13.30;76.10
22006;DHT22;11167;46.988;15.470;2024-03-29T12:28:15;13.30;76.20
22006;DHT22;11167;46.988;15.470;2024-03-29T12:30:16;13.30;76.20
22006;DHT22;11167;46.988;15.470;2024-03-29T12:32:20;13.40;76.20
22006;DHT22;11167;46.988;15.470;2024-03-29T12:34:22;13.40;76.20
22006;DHT22;11167;46.988;15.470;2024-03-29T12:36:24;13.50;76.20
22006;DHT22;11167;46.988;15.470;2024-03-29T12:38:27;13.50;76.00
22006;DHT22;11167;46.988;15.470;2024-03-29T12:40:31;13.50;76.00
22006;DHT22;11167;46.988;15.470;2024-03-29T12:42:40;13.60;76.10
22006;DHT22;11167;46.988;15.470;2024-03-29T12:44:42;13.60;76.00
22006;DHT22;11167;46.988;15.470;2024-03-29T12:46:43;13.60;76.00
22006;DHT22;11167;46.988;15.470;2024-03-29T12:48:46;13.60;76.00
22006;DHT22;11167;46.988;15.470;2024-03-29T12:50:47;13.70;76.00
22006;DHT22;11167;46.988;15.470;2024-03-29T12:52:49;13.70;76.00
22006;DHT22;11167;46.988;15.470;2024-03-29T12:54:50;13.70;75.90